首页
METAR-TAF:

METAR-TAF

机场 :

雅温得-恩西马兰国际机场

雅温得, 喀麦隆

纬度: 03-50N, 经度: 011-31E, 海拔: 751米

当前天气观测

该预报发布于1小时和14分钟前的21:00 UTC
静风
温度 22°C
湿度 94%
气压 1017 hPa
能見度: 6000
少量云层高于600英尺

METAR: FKYS 112100Z 00000KT 6000 FEW006 22/21 Q1017 NOSIG

时间: 23:14 (22:14 UTC)

预报

该预报发布于5小时和14分钟前的17:00 UTC
预报有效从11日的 18点(UTC)到 12日的 18点(UTC)
风速3节,风向多变
能见度10公里或以上
散云层高于2000英尺
少量云层高于2300英尺, 积雨云.
成为
从 11日的 22点(UTC)到 12日的 02点(UTC)
多云层高于600英尺
短暂存在
从 12日的 04点(UTC)到 12日的 08点(UTC)
能見度: 3000
轻雾
成为
从 12日的 08点(UTC)到 12日的 10点(UTC)
多云层高于1300英尺

TAF: FKYS 111700Z 1118/1218 VRB03KT 9999 SCT020 FEW023CB BECMG 1122/1202 BKN006 TEMPO 1204/1208 3000 BR BECMG 1208/1210 BKN013

超过4000个机场的气象观测和天气预报(METAR&TAF报告)。

可查询的气象台以黄色和红色小点在地图上表示。

将鼠标移到小点上方,可查看气象台名称。

然后点击查看天气观测和预报。

如需切换地图:点击带黑十字的绿色按钮放大地图;点击带横线的绿色按钮缩小地图;或者点击绿色箭头查看邻近地区的地图。


METAR-TAF: